Time;durP1;ratioP1;P1;durP2;ratioP2;P2;SDS_P1;SDS_P2;PMS_P1;PMS_P2;Temp;Humidity;BMP_temperature;BMP_pressure;BME280_temperature;BME280_humidity;BME280_pressure;Samples;Min_cycle;Max_cycle;Signal;HPM_P1;HPM_P2
2023/06/12 00:02:04;;;;;;;6.43;4.50;;;;;;;;;;5038765;28;20530;-64
2023/06/12 00:04:29;;;;;;;2.90;2.70;;;;;;;;;;5056793;28;20029;-62
2023/06/12 00:06:56;;;;;;;2.55;2.45;;;;;;;;;;5056292;28;20032;-65
2023/06/12 00:09:21;;;;;;;2.80;2.60;;;;;;;;;;5056795;28;20031;-64
2023/06/12 00:11:46;;;;;;;2.60;2.50;;;;;;;;;;5038742;28;20028;-63
2023/06/12 00:14:12;;;;;;;2.97;2.70;;;;;;;;;;5056657;28;20044;-63
2023/06/12 00:16:37;;;;;;;3.13;2.90;;;;;;;;;;5056852;28;20025;-63
2023/06/12 00:19:03;;;;;;;2.90;2.70;;;;;;;;;;5056686;28;20486;-62
2023/06/12 00:21:28;;;;;;;3.00;2.80;;;;;;;;;;5056155;28;20499;-64
2023/06/12 00:23:54;;;;;;;3.72;2.83;;;;;;;;;;5056300;28;20113;-64
2023/06/12 00:26:19;;;;;;;4.03;2.70;;;;;;;;;;5038232;28;20373;-63
2023/06/12 00:28:45;;;;;;;2.85;2.65;;;;;;;;;;5038483;28;20029;-64
2023/06/12 00:31:10;;;;;;;3.60;2.72;;;;;;;;;;5056363;28;20441;-64
2023/06/12 00:33:36;;;;;;;4.88;2.95;;;;;;;;;;5056283;28;20029;-64
2023/06/12 00:36:02;;;;;;;3.10;2.90;;;;;;;;;;5038730;28;20060;-64
2023/06/12 00:38:27;;;;;;;7.07;5.57;;;;;;;;;;5038524;28;20108;-64
2023/06/12 00:40:53;;;;;;;3.83;3.50;;;;;;;;;;5056439;28;20044;-64
2023/06/12 00:43:18;;;;;;;3.50;2.70;;;;;;;;;;5056156;28;20029;-64
2023/06/12 00:45:43;;;;;;;3.97;3.67;;;;;;;;;;5056046;28;20021;-63
2023/06/12 00:48:09;;;;;;;3.78;2.83;;;;;;;;;;5055766;28;20029;-63
2023/06/12 00:50:35;;;;;;;4.90;3.10;;;;;;;;;;5037988;28;20080;-63
2023/06/12 00:53:01;;;;;;;3.70;2.70;;;;;;;;;;5055801;28;20063;-63
2023/06/12 00:55:29;;;;;;;2.70;2.50;;;;;;;;;;5055976;28;20033;-63
2023/06/12 00:57:55;;;;;;;4.88;2.63;;;;;;;;;;5055995;28;20040;-64
2023/06/12 01:00:20;;;;;;;3.25;2.97;;;;;;;;;;5037621;28;20095;-63
2023/06/12 01:02:46;;;;;;;3.30;2.50;;;;;;;;;;5037333;28;20021;-63
2023/06/12 01:05:14;;;;;;;2.88;2.67;;;;;;;;;;5040268;28;20030;-64
2023/06/12 01:07:45;;;;;;;3.67;3.28;;;;;;;;;;5037431;28;20017;-65
2023/06/12 01:10:20;;;;;;;5.60;2.88;;;;;;;;;;5037546;28;20115;-64
2023/06/12 01:12:45;;;;;;;3.75;3.05;;;;;;;;;;5054069;28;20025;-63
2023/06/12 01:15:12;;;;;;;4.47;2.92;;;;;;;;;;5036841;28;20021;-66
2023/06/12 01:17:40;;;;;;;3.15;2.85;;;;;;;;;;5020431;28;20029;-63
2023/06/12 01:20:12;;;;;;;3.58;3.28;;;;;;;;;;5054898;28;20056;-64
2023/06/12 01:22:41;;;;;;;4.55;2.90;;;;;;;;;;5035348;28;20034;-66
2023/06/12 01:25:22;;;;;;;3.33;2.65;;;;;;;;;;5041831;28;20021;-62
2023/06/12 01:28:06;;;;;;;2.58;2.38;;;;;;;;;;5037458;28;20029;-62
2023/06/12 01:30:31;;;;;;;3.33;2.83;;;;;;;;;;5037152;28;20063;-62
2023/06/12 01:33:02;;;;;;;3.05;2.80;;;;;;;;;;5037425;28;20052;-62
2023/06/12 01:35:32;;;;;;;3.60;3.00;;;;;;;;;;5037115;28;20116;-62
2023/06/12 01:38:12;;;;;;;2.40;2.20;;;;;;;;;;5037405;28;20040;-62
2023/06/12 01:40:38;;;;;;;2.63;2.50;;;;;;;;;;5054537;28;20069;-62
2023/06/12 01:43:04;;;;;;;2.97;2.78;;;;;;;;;;5036986;28;20112;-65
2023/06/12 01:45:31;;;;;;;2.90;2.70;;;;;;;;;;5037228;28;20433;-65
2023/06/12 01:47:57;;;;;;;3.83;3.10;;;;;;;;;;5037166;28;20021;-65
2023/06/12 01:50:23;;;;;;;3.22;2.97;;;;;;;;;;5037012;28;20068;-65
2023/06/12 01:52:49;;;;;;;3.05;2.75;;;;;;;;;;5036939;28;20082;-65
2023/06/12 01:55:19;;;;;;;3.33;2.85;;;;;;;;;;5020641;28;20032;-66
2023/06/12 01:57:45;;;;;;;4.65;3.03;;;;;;;;;;5037111;28;20025;-65
2023/06/12 02:00:12;;;;;;;3.15;2.58;;;;;;;;;;5036617;28;20491;-65
2023/06/12 02:02:46;;;;;;;3.17;2.90;;;;;;;;;;5054193;28;20040;-65
2023/06/12 02:05:15;;;;;;;3.10;2.88;;;;;;;;;;5036296;28;20114;-66
2023/06/12 02:07:40;;;;;;;3.30;3.10;;;;;;;;;;5036604;28;20029;-66
2023/06/12 02:10:07;;;;;;;3.10;2.85;;;;;;;;;;5036667;28;20036;-67
2023/06/12 02:12:33;;;;;;;3.00;2.70;;;;;;;;;;5036209;28;20103;-67
2023/06/12 02:14:59;;;;;;;3.08;2.75;;;;;;;;;;5036520;28;20025;-66
2023/06/12 02:17:24;;;;;;;3.67;3.00;;;;;;;;;;5036118;28;20044;-67
2023/06/12 02:19:49;;;;;;;3.35;3.08;;;;;;;;;;5035371;28;20379;-66
2023/06/12 02:22:15;;;;;;;3.13;2.90;;;;;;;;;;5053811;28;20029;-66
2023/06/12 02:24:40;;;;;;;4.75;3.00;;;;;;;;;;5054091;28;20504;-69
2023/06/12 02:27:06;;;;;;;3.28;2.97;;;;;;;;;;5036066;28;20429;-69
2023/06/12 02:29:31;;;;;;;3.15;2.78;;;;;;;;;;5036370;28;20027;-65
2023/06/12 02:31:58;;;;;;;2.67;2.55;;;;;;;;;;5036259;28;20025;-65
2023/06/12 02:34:25;;;;;;;3.70;2.78;;;;;;;;;;5036292;28;20025;-65
2023/06/12 02:36:50;;;;;;;3.45;2.88;;;;;;;;;;5035973;28;20491;-68
2023/06/12 02:39:35;;;;;;;2.65;2.15;;;;;;;;;;5036140;28;20035;-69
2023/06/12 02:42:03;;;;;;;2.83;2.42;;;;;;;;;;5035901;28;20020;-69
2023/06/12 02:44:28;;;;;;;2.97;2.67;;;;;;;;;;5019690;28;20036;-66
2023/06/12 02:46:55;;;;;;;2.33;2.22;;;;;;;;;;5036054;28;20025;-66
2023/06/12 02:49:24;;;;;;;4.05;3.00;;;;;;;;;;5035536;28;20511;-65
2023/06/12 02:51:50;;;;;;;3.08;2.88;;;;;;;;;;5035902;28;20095;-65
2023/06/12 02:54:16;;;;;;;3.38;2.90;;;;;;;;;;5035708;28;20026;-67
2023/06/12 02:56:47;;;;;;;5.55;3.10;;;;;;;;;;5035733;28;20039;-66
2023/06/12 02:59:24;;;;;;;4.55;2.90;;;;;;;;;;5036150;28;20051;-66
2023/06/12 03:01:54;;;;;;;5.10;2.88;;;;;;;;;;5036226;28;20567;-67
2023/06/12 03:04:36;;;;;;;3.60;3.10;;;;;;;;;;5054003;28;20440;-65
2023/06/12 03:07:05;;;;;;;9.30;3.30;;;;;;;;;;5054118;28;20037;-66
2023/06/12 03:09:35;;;;;;;3.65;3.40;;;;;;;;;;5035771;28;20036;-66
2023/06/12 03:12:01;;;;;;;3.53;2.75;;;;;;;;;;5036068;28;20461;-65
2023/06/12 03:14:28;;;;;;;3.60;3.30;;;;;;;;;;5035595;28;20029;-65
2023/06/12 03:16:54;;;;;;;3.53;3.22;;;;;;;;;;5053533;28;20066;-64
2023/06/12 03:19:19;;;;;;;2.72;2.63;;;;;;;;;;5019599;28;20029;-64
2023/06/12 03:21:44;;;;;;;4.03;3.15;;;;;;;;;;5036008;28;20026;-65
2023/06/12 03:24:10;;;;;;;3.10;2.80;;;;;;;;;;5053582;28;20365;-65
2023/06/12 03:26:36;;;;;;;3.25;2.95;;;;;;;;;;5035864;28;20025;-63
2023/06/12 03:29:01;;;;;;;3.00;2.80;;;;;;;;;;5053562;28;20029;-63
2023/06/12 03:31:28;;;;;;;3.60;3.40;;;;;;;;;;5036552;28;20112;-67
2023/06/12 03:33:55;;;;;;;3.83;3.35;;;;;;;;;;5039749;28;20036;-68
2023/06/12 03:36:23;;;;;;;3.40;3.10;;;;;;;;;;5039613;28;20021;-67
2023/06/12 03:38:49;;;;;;;5.38;3.40;;;;;;;;;;5057751;28;20036;-65
2023/06/12 03:41:14;;;;;;;3.65;2.95;;;;;;;;;;5039793;28;20144;-65
2023/06/12 03:43:39;;;;;;;4.57;3.25;;;;;;;;;;5039515;28;20086;-67
2023/06/12 03:46:06;;;;;;;5.05;3.13;;;;;;;;;;5023219;28;20048;-66
2023/06/12 03:48:31;;;;;;;4.13;3.35;;;;;;;;;;5022713;28;20028;-66
2023/06/12 03:50:57;;;;;;;4.88;2.97;;;;;;;;;;5038830;28;20131;-66
2023/06/12 03:53:22;;;;;;;3.45;3.15;;;;;;;;;;5039505;28;20063;-62
2023/06/12 03:55:47;;;;;;;3.47;3.28;;;;;;;;;;5038184;28;20021;-62
2023/06/12 03:58:16;;;;;;;3.22;3.03;;;;;;;;;;5020506;28;20080;-66
2023/06/12 04:00:43;;;;;;;3.70;3.40;;;;;;;;;;5038654;28;20465;-66
2023/06/12 04:03:09;;;;;;;3.22;3.03;;;;;;;;;;5035866;28;20154;-62
2023/06/12 04:05:34;;;;;;;5.10;3.00;;;;;;;;;;5022099;28;20057;-65
2023/06/12 04:08:00;;;;;;;3.38;3.08;;;;;;;;;;5018766;28;20021;-62
2023/06/12 04:10:25;;;;;;;3.72;3.17;;;;;;;;;;5035967;28;20499;-62
2023/06/12 04:12:50;;;;;;;3.85;3.20;;;;;;;;;;5038441;28;20032;-66
2023/06/12 04:15:16;;;;;;;3.95;3.10;;;;;;;;;;5038308;28;20032;-64
2023/06/12 04:17:41;;;;;;;3.70;3.50;;;;;;;;;;5038484;28;20036;-67
2023/06/12 04:20:07;;;;;;;3.72;3.42;;;;;;;;;;5036809;28;20037;-68
2023/06/12 04:22:32;;;;;;;3.78;3.15;;;;;;;;;;5055941;28;20106;-68
2023/06/12 04:25:01;;;;;;;3.40;3.10;;;;;;;;;;5054390;28;20484;-69
2023/06/12 04:27:29;;;;;;;3.58;3.25;;;;;;;;;;5018953;28;20149;-68
2023/06/12 04:29:56;;;;;;;3.38;3.08;;;;;;;;;;5034965;28;20104;-67
2023/06/12 04:32:23;;;;;;;3.17;2.85;;;;;;;;;;5036603;28;20018;-67
2023/06/12 04:34:49;;;;;;;4.55;3.25;;;;;;;;;;5051524;28;20037;-68
2023/06/12 04:37:18;;;;;;;6.40;2.97;;;;;;;;;;5018354;28;20025;-68
2023/06/12 04:39:45;;;;;;;3.97;3.03;;;;;;;;;;5052095;28;20048;-69
2023/06/12 04:42:10;;;;;;;3.30;3.00;;;;;;;;;;5051941;28;20385;-67
2023/06/12 04:44:39;;;;;;;4.05;2.92;;;;;;;;;;5035067;28;20112;-67
2023/06/12 04:47:07;;;;;;;3.28;2.97;;;;;;;;;;5051597;28;20029;-67
2023/06/12 04:49:33;;;;;;;3.00;2.70;;;;;;;;;;5035015;28;20469;-67
2023/06/12 04:52:03;;;;;;;2.70;2.50;;;;;;;;;;5035863;28;20041;-66
2023/06/12 04:54:35;;;;;;;3.13;2.80;;;;;;;;;;5051651;28;20033;-65
2023/06/12 04:57:02;;;;;;;3.13;2.92;;;;;;;;;;5051404;28;20121;-64
2023/06/12 04:59:27;;;;;;;3.47;2.97;;;;;;;;;;5002106;28;20039;-64
2023/06/12 05:01:53;;;;;;;4.22;2.78;;;;;;;;;;5051254;28;20031;-64
2023/06/12 05:04:18;;;;;;;2.75;2.55;;;;;;;;;;5017574;28;20109;-64
2023/06/12 05:06:44;;;;;;;3.53;2.67;;;;;;;;;;5036138;28;20048;-63
2023/06/12 05:09:09;;;;;;;3.05;2.60;;;;;;;;;;5027997;28;20025;-64
2023/06/12 05:11:35;;;;;;;3.30;2.85;;;;;;;;;;5034584;28;20485;-64
2023/06/12 05:14:00;;;;;;;5.65;2.88;;;;;;;;;;5035838;28;20014;-64
2023/06/12 05:16:28;;;;;;;4.10;2.67;;;;;;;;;;5034020;28;20097;-64
2023/06/12 05:18:53;;;;;;;2.95;2.75;;;;;;;;;;5036986;28;20526;-65
2023/06/12 05:21:19;;;;;;;4.25;2.60;;;;;;;;;;5019786;28;20034;-64
2023/06/12 05:23:45;;;;;;;3.38;2.67;;;;;;;;;;5035672;28;20032;-65
2023/06/12 05:26:11;;;;;;;2.58;2.00;;;;;;;;;;5019849;28;20017;-64
2023/06/12 05:28:36;;;;;;;2.58;2.30;;;;;;;;;;5034965;28;20029;-61
2023/06/12 05:31:04;;;;;;;2.80;2.50;;;;;;;;;;5035865;28;20461;-61
2023/06/12 05:33:29;;;;;;;3.63;2.53;;;;;;;;;;5035658;28;20037;-61
2023/06/12 05:35:55;;;;;;;2.30;2.10;;;;;;;;;;5036192;28;20086;-61
2023/06/12 05:38:20;;;;;;;3.70;2.20;;;;;;;;;;5037110;28;20028;-61
2023/06/12 05:40:46;;;;;;;2.50;2.30;;;;;;;;;;5036870;28;20025;-61
2023/06/12 05:43:12;;;;;;;2.10;2.00;;;;;;;;;;5054326;28;20520;-61
2023/06/12 05:45:37;;;;;;;3.05;2.42;;;;;;;;;;5035830;28;20167;-61
2023/06/12 05:48:03;;;;;;;2.30;2.20;;;;;;;;;;5054698;28;20112;-61
2023/06/12 05:50:28;;;;;;;3.13;2.40;;;;;;;;;;5054502;28;20029;-60
2023/06/12 05:52:53;;;;;;;3.78;2.20;;;;;;;;;;5036681;28;20033;-61
2023/06/12 05:55:19;;;;;;;4.47;2.10;;;;;;;;;;5035561;28;20473;-61
2023/06/12 05:57:44;;;;;;;7.43;2.90;;;;;;;;;;5034506;28;20059;-60
2023/06/12 06:00:12;;;;;;;2.50;2.30;;;;;;;;;;5034803;28;20090;-60
2023/06/12 06:02:47;;;;;;;2.55;2.30;;;;;;;;;;5034482;28;20036;-62
2023/06/12 06:05:26;;;;;;;2.95;2.25;;;;;;;;;;5035923;28;20025;-61
2023/06/12 06:07:53;;;;;;;3.47;1.75;;;;;;;;;;5036088;28;20472;-61
2023/06/12 06:10:19;;;;;;;2.10;2.00;;;;;;;;;;5036214;28;20044;-61
2023/06/12 06:12:45;;;;;;;3.67;2.47;;;;;;;;;;5036373;28;20086;-61
2023/06/12 06:15:11;;;;;;;1.90;1.80;;;;;;;;;;5036318;28;20033;-61
2023/06/12 06:17:36;;;;;;;3.05;2.45;;;;;;;;;;5036265;28;20017;-61
2023/06/12 06:20:05;;;;;;;2.50;2.30;;;;;;;;;;5036256;28;20061;-61
2023/06/12 06:22:31;;;;;;;6.35;2.60;;;;;;;;;;5036126;28;20032;-61
2023/06/12 06:24:57;;;;;;;2.20;2.10;;;;;;;;;;5020350;28;20460;-60
2023/06/12 06:27:22;;;;;;;2.70;2.50;;;;;;;;;;5036169;28;20056;-61
2023/06/12 06:29:48;;;;;;;2.40;1.80;;;;;;;;;;5036032;28;20078;-61
2023/06/12 06:32:13;;;;;;;6.38;2.10;;;;;;;;;;5053897;28;20131;-61
2023/06/12 06:34:38;;;;;;;5.07;1.90;;;;;;;;;;5036301;28;20025;-60
2023/06/12 06:37:03;;;;;;;2.38;1.73;;;;;;;;;;5053843;28;20391;-61
2023/06/12 06:39:29;;;;;;;2.83;2.00;;;;;;;;;;5053824;28;20040;-61
2023/06/12 06:41:54;;;;;;;3.70;2.10;;;;;;;;;;5053674;28;20033;-61
2023/06/12 06:44:20;;;;;;;2.58;1.88;;;;;;;;;;5035796;28;20033;-61
2023/06/12 06:46:46;;;;;;;2.30;2.10;;;;;;;;;;5033727;22;20032;-61
2023/06/12 06:49:12;;;;;;;1.90;1.80;;;;;;;;;;5068815;28;20480;-63
2023/06/12 06:51:38;;;;;;;2.38;1.73;;;;;;;;;;5053714;28;20049;-63
2023/06/12 06:54:03;;;;;;;2.17;2.08;;;;;;;;;;5052387;28;20481;-60
2023/06/12 06:56:29;;;;;;;2.15;2.05;;;;;;;;;;5052630;28;20021;-60
2023/06/12 06:58:54;;;;;;;2.58;2.03;;;;;;;;;;5053783;28;20036;-60
2023/06/12 07:01:20;;;;;;;3.17;2.30;;;;;;;;;;5052852;28;20462;-60
2023/06/12 07:03:47;;;;;;;2.30;2.17;;;;;;;;;;5069203;28;20037;-60
2023/06/12 07:06:13;;;;;;;2.55;2.40;;;;;;;;;;5068343;28;20029;-60
2023/06/12 07:08:38;;;;;;;2.60;2.40;;;;;;;;;;5052784;28;20028;-61
2023/06/12 07:11:04;;;;;;;4.07;2.58;;;;;;;;;;5053460;28;20024;-60
2023/06/12 07:13:29;;;;;;;2.75;2.20;;;;;;;;;;5068877;28;20057;-60
2023/06/12 07:15:55;;;;;;;3.33;2.08;;;;;;;;;;5069431;28;20108;-60
2023/06/12 07:18:21;;;;;;;2.80;2.20;;;;;;;;;;5068830;28;20032;-60
2023/06/12 07:20:47;;;;;;;1.95;1.85;;;;;;;;;;5052077;28;20031;-61
2023/06/12 07:23:12;;;;;;;2.88;1.80;;;;;;;;;;5069200;28;20029;-60
2023/06/12 07:25:38;;;;;;;2.10;2.00;;;;;;;;;;5052346;28;20449;-60
2023/06/12 07:28:03;;;;;;;4.22;1.83;;;;;;;;;;5069204;28;20029;-61
2023/06/12 07:30:29;;;;;;;3.15;1.75;;;;;;;;;;5069388;28;20094;-62
2023/06/12 07:32:55;;;;;;;1.88;1.73;;;;;;;;;;5069013;28;20128;-61
2023/06/12 07:35:20;;;;;;;3.40;1.80;;;;;;;;;;5068629;28;20040;-61
2023/06/12 07:37:46;;;;;;;2.08;1.42;;;;;;;;;;5051952;28;20024;-60
2023/06/12 07:40:13;;;;;;;2.03;1.70;;;;;;;;;;5068619;28;20029;-61
2023/06/12 07:42:42;;;;;;;1.58;1.45;;;;;;;;;;5069128;28;20025;-61
2023/06/12 07:45:08;;;;;;;3.90;1.60;;;;;;;;;;5051906;28;20021;-61
2023/06/12 07:47:33;;;;;;;6.78;2.40;;;;;;;;;;5035071;28;20041;-61
2023/06/12 07:49:59;;;;;;;3.53;1.80;;;;;;;;;;5051844;28;20024;-61
2023/06/12 07:52:24;;;;;;;3.10;1.55;;;;;;;;;;5068462;28;20459;-61
2023/06/12 07:54:50;;;;;;;5.47;2.92;;;;;;;;;;5068426;28;20041;-61
2023/06/12 07:57:16;;;;;;;5.80;4.63;;;;;;;;;;5051803;28;20025;-61
2023/06/12 07:59:42;;;;;;;5.35;4.95;;;;;;;;;;5068435;28;20025;-61
2023/06/12 08:02:07;;;;;;;2.40;2.00;;;;;;;;;;5053311;28;20017;-61
2023/06/12 08:04:33;;;;;;;2.88;2.00;;;;;;;;;;5068345;28;20032;-61
2023/06/12 08:07:00;;;;;;;2.30;2.10;;;;;;;;;;5053216;28;20396;-61
2023/06/12 08:09:28;;;;;;;1.83;1.73;;;;;;;;;;5035471;28;20397;-61
2023/06/12 08:11:54;;;;;;;2.03;1.80;;;;;;;;;;5068351;28;20025;-61
2023/06/12 08:14:20;;;;;;;3.05;1.65;;;;;;;;;;5052856;28;20033;-61
2023/06/12 08:16:46;;;;;;;3.35;1.40;;;;;;;;;;5052143;28;20112;-61
2023/06/12 08:19:12;;;;;;;5.03;1.90;;;;;;;;;;5070423;28;20112;-61
2023/06/12 08:21:38;;;;;;;2.08;1.98;;;;;;;;;;5055138;28;20120;-63
2023/06/12 08:24:06;;;;;;;7.78;2.40;;;;;;;;;;5071676;28;20094;-63
2023/06/12 08:26:31;;;;;;;1.67;1.58;;;;;;;;;;5055056;28;20017;-63
2023/06/12 08:28:57;;;;;;;2.80;2.00;;;;;;;;;;5071667;28;20031;-63
2023/06/12 08:31:26;;;;;;;4.03;2.03;;;;;;;;;;5071895;28;20078;-63
2023/06/12 08:33:51;;;;;;;1.90;1.80;;;;;;;;;;5071547;28;20068;-63
2023/06/12 08:36:16;;;;;;;2.00;1.70;;;;;;;;;;5056407;28;20021;-63
2023/06/12 08:38:42;;;;;;;5.63;2.22;;;;;;;;;;5054811;28;20033;-63
2023/06/12 08:41:08;;;;;;;2.58;1.90;;;;;;;;;;5071465;28;20428;-63
2023/06/12 08:43:34;;;;;;;2.05;1.92;;;;;;;;;;5072419;28;20037;-63
2023/06/12 08:46:07;;;;;;;1.73;1.63;;;;;;;;;;5055261;28;20111;-63
2023/06/12 08:48:32;;;;;;;3.97;1.90;;;;;;;;;;5055765;28;20041;-63
2023/06/12 08:50:58;;;;;;;4.35;2.08;;;;;;;;;;5056121;28;20029;-63
2023/06/12 08:53:24;;;;;;;1.92;1.80;;;;;;;;;;5056062;28;20060;-63
2023/06/12 08:55:50;;;;;;;3.65;1.90;;;;;;;;;;5056043;28;20385;-63
2023/06/12 08:58:15;;;;;;;6.63;1.98;;;;;;;;;;5055953;28;20039;-63
2023/06/12 09:00:41;;;;;;;5.10;2.05;;;;;;;;;;5054391;28;20120;-63
2023/06/12 09:03:06;;;;;;;2.78;2.15;;;;;;;;;;5054555;28;20523;-63
2023/06/12 09:05:33;;;;;;;1.85;1.75;;;;;;;;;;5056104;28;20029;-63
2023/06/12 09:08:00;;;;;;;2.40;1.75;;;;;;;;;;5055793;28;20013;-63
2023/06/12 09:10:25;;;;;;;2.08;1.80;;;;;;;;;;5055731;28;20029;-63
2023/06/12 09:12:55;;;;;;;2.95;1.50;;;;;;;;;;5055360;28;20036;-63
2023/06/12 09:15:21;;;;;;;3.28;1.90;;;;;;;;;;5055660;28;20025;-63
2023/06/12 09:17:47;;;;;;;2.05;1.90;;;;;;;;;;5055663;28;20392;-60
2023/06/12 09:20:17;;;;;;;1.75;1.48;;;;;;;;;;5055557;28;20021;-60
2023/06/12 09:22:43;;;;;;;3.45;1.70;;;;;;;;;;5055468;28;20063;-60
2023/06/12 09:25:08;;;;;;;1.90;1.70;;;;;;;;;;5055200;28;20049;-60
2023/06/12 09:27:42;;;;;;;3.72;1.80;;;;;;;;;;5055146;28;20485;-60
2023/06/12 09:30:09;;;;;;;5.68;2.20;;;;;;;;;;5054879;28;20040;-60
2023/06/12 09:32:34;;;;;;;2.60;2.10;;;;;;;;;;5055205;28;20040;-60
2023/06/12 09:35:01;;;;;;;1.70;1.60;;;;;;;;;;5055309;28;20111;-61
2023/06/12 09:37:26;;;;;;;5.57;1.70;;;;;;;;;;5054966;28;20027;-60
2023/06/12 09:40:06;;;;;;;4.38;1.67;;;;;;;;;;5054880;28;20119;-60
2023/06/12 09:42:35;;;;;;;4.78;2.10;;;;;;;;;;5054824;28;20091;-60
2023/06/12 09:45:09;;;;;;;2.47;1.90;;;;;;;;;;5055060;28;20579;-60
2023/06/12 09:47:38;;;;;;;3.45;1.90;;;;;;;;;;5053459;28;20045;-61
2023/06/12 09:50:04;;;;;;;2.63;2.05;;;;;;;;;;5055024;28;20079;-60
2023/06/12 09:52:29;;;;;;;2.92;1.90;;;;;;;;;;5055259;28;20032;-60
2023/06/12 09:54:56;;;;;;;3.40;1.70;;;;;;;;;;5054618;28;20071;-60
2023/06/12 09:57:21;;;;;;;1.52;1.42;;;;;;;;;;5054557;28;20032;-61
2023/06/12 09:59:47;;;;;;;3.75;2.60;;;;;;;;;;5053264;28;20424;-61
2023/06/12 10:02:15;;;;;;;1.88;1.77;;;;;;;;;;5069860;28;20028;-61
2023/06/12 10:04:45;;;;;;;2.10;1.88;;;;;;;;;;5053378;28;20162;-61
2023/06/12 10:07:11;;;;;;;;;;;;;;;;;;5053624;28;20037;-60
2023/06/12 10:09:39;;;;;;;2.92;1.60;;;;;;;;;;5054360;28;19905;-60
2023/06/12 10:12:05;;;;;;;4.43;1.90;;;;;;;;;;5054807;28;20037;-61
2023/06/12 10:14:30;;;;;;;3.33;1.65;;;;;;;;;;5054519;28;20051;-61
2023/06/12 10:16:57;;;;;;;3.38;1.77;;;;;;;;;;5054227;28;20037;-60
2023/06/12 10:19:26;;;;;;;5.68;1.90;;;;;;;;;;5054446;28;20107;-61
2023/06/12 10:21:55;;;;;;;1.95;1.77;;;;;;;;;;5054401;28;20037;-61
2023/06/12 10:24:23;;;;;;;5.68;2.17;;;;;;;;;;5054270;28;20182;-61
2023/06/12 10:26:51;;;;;;;8.25;2.38;;;;;;;;;;5054344;28;20021;-61
2023/06/12 10:29:26;;;;;;;4.40;1.60;;;;;;;;;;5054026;28;20056;-61
2023/06/12 10:31:51;;;;;;;3.33;1.60;;;;;;;;;;5052786;28;20067;-61
2023/06/12 10:34:16;;;;;;;3.70;1.70;;;;;;;;;;5054221;28;20052;-61
2023/06/12 10:36:42;;;;;;;5.32;1.67;;;;;;;;;;5053874;28;20028;-61
2023/06/12 10:39:19;;;;;;;4.97;1.90;;;;;;;;;;5053862;28;20029;-61
2023/06/12 10:41:57;;;;;;;3.50;1.80;;;;;;;;;;5053304;28;20124;-61
2023/06/12 10:44:35;;;;;;;3.28;1.70;;;;;;;;;;5052403;28;20090;-60
2023/06/12 10:47:00;;;;;;;3.67;1.50;;;;;;;;;;5053543;28;20029;-61
2023/06/12 10:49:26;;;;;;;2.80;2.03;;;;;;;;;;5052400;28;20039;-61
2023/06/12 10:51:51;;;;;;;1.60;1.50;;;;;;;;;;5053967;28;20162;-61
2023/06/12 10:54:23;;;;;;;3.38;1.50;;;;;;;;;;5053925;28;20032;-60
2023/06/12 10:56:59;;;;;;;2.58;1.60;;;;;;;;;;5053630;28;20475;-61
2023/06/12 10:59:33;;;;;;;2.88;1.83;;;;;;;;;;5053843;28;20055;-61
2023/06/12 11:01:59;;;;;;;2.72;1.60;;;;;;;;;;5053839;28;20060;-61
2023/06/12 11:04:24;;;;;;;3.17;2.00;;;;;;;;;;5053425;28;20127;-61
2023/06/12 11:06:50;;;;;;;4.07;1.33;;;;;;;;;;5054025;28;20024;-61
2023/06/12 11:09:15;;;;;;;4.50;2.45;;;;;;;;;;5052307;28;20056;-61
2023/06/12 11:11:41;;;;;;;2.85;1.50;;;;;;;;;;5053708;28;20146;-61
2023/06/12 11:14:07;;;;;;;2.15;1.80;;;;;;;;;;5053438;28;20369;-61
2023/06/12 11:16:39;;;;;;;3.45;1.45;;;;;;;;;;5053362;28;20040;-61
2023/06/12 11:19:06;;;;;;;3.45;1.55;;;;;;;;;;5053356;28;20033;-60
2023/06/12 11:21:32;;;;;;;3.95;1.80;;;;;;;;;;5053368;28;20074;-61
2023/06/12 11:24:11;;;;;;;5.50;1.60;;;;;;;;;;5053276;28;20476;-61
2023/06/12 11:26:36;;;;;;;1.70;1.60;;;;;;;;;;5053843;28;20108;-61
2023/06/12 11:29:18;;;;;;;2.53;1.73;;;;;;;;;;5035450;28;20045;-61
2023/06/12 11:31:58;;;;;;;5.32;2.45;;;;;;;;;;5053265;28;20029;-61
2023/06/12 11:34:23;;;;;;;2.63;1.40;;;;;;;;;;5052335;28;20551;-61
2023/06/12 11:36:49;;;;;;;1.77;1.50;;;;;;;;;;5052031;28;20115;-61
2023/06/12 11:39:18;;;;;;;3.33;1.55;;;;;;;;;;5053227;28;20047;-61
2023/06/12 11:41:43;;;;;;;2.70;2.00;;;;;;;;;;5052293;28;20048;-61
2023/06/12 11:44:08;;;;;;;1.50;1.40;;;;;;;;;;5053081;28;20472;-61
2023/06/12 11:46:34;;;;;;;5.43;1.80;;;;;;;;;;5051959;28;20468;-61
2023/06/12 11:49:00;;;;;;;2.10;1.60;;;;;;;;;;5052989;28;20045;-61
2023/06/12 11:51:26;;;;;;;4.55;1.60;;;;;;;;;;5068586;28;20044;-61
2023/06/12 11:53:51;;;;;;;2.60;1.52;;;;;;;;;;5056193;28;20029;-61
2023/06/12 11:56:41;;;;;;;2.88;1.50;;;;;;;;;;5067273;23;20045;-63
2023/06/12 11:59:07;;;;;;;1.98;1.77;;;;;;;;;;4995641;28;20054;-61
2023/06/12 12:01:36;;;;;;;2.03;1.65;;;;;;;;;;4997455;28;20031;-60
2023/06/12 12:04:03;;;;;;;2.13;2.00;;;;;;;;;;4996070;28;20073;-60
2023/06/12 12:06:29;;;;;;;3.53;1.48;;;;;;;;;;4997473;28;20057;-60
2023/06/12 12:08:55;;;;;;;3.85;1.30;;;;;;;;;;4997332;28;20053;-60
2023/06/12 12:11:21;;;;;;;1.63;1.50;;;;;;;;;;4996258;28;20394;-61
2023/06/12 12:13:48;;;;;;;1.60;1.50;;;;;;;;;;4997201;28;20460;-60
2023/06/12 12:16:13;;;;;;;5.75;1.58;;;;;;;;;;4997112;28;20021;-61
2023/06/12 12:18:41;;;;;;;2.17;1.38;;;;;;;;;;4997085;28;20034;-61
2023/06/12 12:21:13;;;;;;;2.63;1.77;;;;;;;;;;4997059;28;20030;-61
2023/06/12 12:23:38;;;;;;;4.82;1.80;;;;;;;;;;4996934;28;20036;-61
2023/06/12 12:26:03;;;;;;;2.05;1.50;;;;;;;;;;4995794;28;20445;-61
2023/06/12 12:28:29;;;;;;;1.80;1.70;;;;;;;;;;4996903;28;20018;-60
2023/06/12 12:30:54;;;;;;;3.38;1.55;;;;;;;;;;4997010;28;20027;-61
2023/06/12 12:33:19;;;;;;;2.35;1.90;;;;;;;;;;4996824;28;20034;-61
2023/06/12 12:35:45;;;;;;;3.33;1.67;;;;;;;;;;4996827;28;20433;-60
2023/06/12 12:38:10;;;;;;;11.18;7.72;;;;;;;;;;4995583;28;20030;-62
2023/06/12 12:40:35;;;;;;;2.08;1.70;;;;;;;;;;4995444;28;20428;-61
2023/06/12 12:43:01;;;;;;;2.17;1.60;;;;;;;;;;4996563;28;20136;-61
2023/06/12 12:45:27;;;;;;;2.70;1.70;;;;;;;;;;4996573;28;20018;-61
2023/06/12 12:47:53;;;;;;;2.13;1.50;;;;;;;;;;4995506;28;20386;-61
2023/06/12 12:50:19;;;;;;;3.28;1.70;;;;;;;;;;4996547;28;20019;-61
2023/06/12 12:52:44;;;;;;;2.15;1.27;;;;;;;;;;4996446;28;20386;-61
2023/06/12 12:55:13;;;;;;;1.80;1.70;;;;;;;;;;4995191;28;20129;-61
2023/06/12 12:57:42;;;;;;;1.77;1.67;;;;;;;;;;4996231;28;20042;-61
2023/06/12 13:00:11;;;;;;;2.58;1.73;;;;;;;;;;4978880;28;20081;-61
2023/06/12 13:02:37;;;;;;;5.18;2.00;;;;;;;;;;4995054;28;20038;-61
2023/06/12 13:05:03;;;;;;;4.93;1.63;;;;;;;;;;4994134;28;20125;-61
2023/06/12 13:07:31;;;;;;;3.67;1.90;;;;;;;;;;4994670;28;20109;-61
2023/06/12 13:09:57;;;;;;;1.65;1.55;;;;;;;;;;4977216;28;20081;-60
2023/06/12 13:12:22;;;;;;;1.70;1.60;;;;;;;;;;4995083;28;20026;-61
2023/06/12 13:14:48;;;;;;;2.97;1.85;;;;;;;;;;4995732;28;20471;-61
2023/06/12 13:17:13;;;;;;;10.65;2.20;;;;;;;;;;4978103;28;20512;-61
2023/06/12 13:19:39;;;;;;;3.60;1.70;;;;;;;;;;4995229;28;20026;-61
2023/06/12 13:22:05;;;;;;;4.07;1.75;;;;;;;;;;5001852;28;20022;-61
2023/06/12 13:24:30;;;;;;;6.07;1.77;;;;;;;;;;4999410;28;20018;-66
2023/06/12 13:26:56;;;;;;;2.10;1.90;;;;;;;;;;5001511;28;20110;-66
2023/06/12 13:29:21;;;;;;;4.68;1.88;;;;;;;;;;5003108;28;20033;-65
2023/06/12 13:31:46;;;;;;;5.20;1.65;;;;;;;;;;5004390;28;20049;-62
2023/06/12 13:34:12;;;;;;;2.17;1.65;;;;;;;;;;5002878;28;20033;-62
2023/06/12 13:36:37;;;;;;;4.75;2.33;;;;;;;;;;5011438;28;20033;-66
2023/06/12 13:39:03;;;;;;;1.95;1.75;;;;;;;;;;5004113;28;20037;-66
2023/06/12 13:41:28;;;;;;;1.45;1.27;;;;;;;;;;5002891;28;20030;-66
2023/06/12 13:43:54;;;;;;;3.08;1.80;;;;;;;;;;4996416;28;20045;-66
2023/06/12 13:46:20;;;;;;;3.42;1.50;;;;;;;;;;5002685;28;20111;-66
2023/06/12 13:48:45;;;;;;;1.98;1.60;;;;;;;;;;5005798;28;20438;-65
2023/06/12 13:51:11;;;;;;;1.60;1.50;;;;;;;;;;5003636;28;20458;-66
2023/06/12 13:53:39;;;;;;;2.28;1.80;;;;;;;;;;5005374;28;20049;-66
2023/06/12 13:56:05;;;;;;;4.28;3.05;;;;;;;;;;5002753;28;20030;-66
2023/06/12 13:58:31;;;;;;;3.15;2.92;;;;;;;;;;5001353;28;20057;-65
2023/06/12 14:00:56;;;;;;;2.17;1.55;;;;;;;;;;5004754;28;20031;-65
2023/06/12 14:03:22;;;;;;;5.05;3.70;;;;;;;;;;5002737;28;20030;-65
2023/06/12 14:05:47;;;;;;;4.20;2.63;;;;;;;;;;5004612;28;20030;-66
2023/06/12 14:08:12;;;;;;;14.57;10.32;;;;;;;;;;5002520;28;20022;-61
2023/06/12 14:10:38;;;;;;;5.57;5.05;;;;;;;;;;5003745;28;20071;-61
2023/06/12 14:13:03;;;;;;;4.65;1.90;;;;;;;;;;5003206;28;20014;-61
2023/06/12 14:15:29;;;;;;;2.20;2.00;;;;;;;;;;4994609;28;20030;-61
2023/06/12 14:17:55;;;;;;;2.05;1.60;;;;;;;;;;5003065;28;20014;-60
2023/06/12 14:20:21;;;;;;;5.53;1.75;;;;;;;;;;4998527;28;20474;-61
2023/06/12 14:22:46;;;;;;;2.45;1.75;;;;;;;;;;5003598;28;20063;-61
2023/06/12 14:25:11;;;;;;;6.55;4.68;;;;;;;;;;4994420;28;20037;-63
2023/06/12 14:27:37;;;;;;;9.75;7.72;;;;;;;;;;4993024;28;20023;-60
2023/06/12 14:30:03;;;;;;;7.28;4.32;;;;;;;;;;4994441;28;20409;-61
2023/06/12 14:32:28;;;;;;;3.85;3.00;;;;;;;;;;4994635;28;20028;-62
2023/06/12 14:34:53;;;;;;;6.80;2.60;;;;;;;;;;4994560;28;20482;-61
2023/06/12 14:37:20;;;;;;;2.00;1.90;;;;;;;;;;4994068;28;20030;-61
2023/06/12 14:39:45;;;;;;;4.40;2.50;;;;;;;;;;4992821;28;20038;-61
2023/06/12 14:42:11;;;;;;;2.00;1.90;;;;;;;;;;4992435;28;20034;-61